Time;durP1;ratioP1;P1;durP2;ratioP2;P2;SDS_P1;SDS_P2;PMS_P1;PMS_P2;Temp;Humidity;BMP_temperature;BMP_pressure;BME280_temperature;BME280_humidity;BME280_pressure;Samples;Min_cycle;Max_cycle;Signal;HPM_P1;HPM_P2
2022/10/02 00:01:23;;;;;;;11.70;4.00;;;11.20;1.00;;;;;;6103006;23;20543;-79
2022/10/02 00:03:50;;;;;;;12.70;4.37;;;11.30;1.00;;;;;;6101560;23;20472;-81
2022/10/02 00:06:23;;;;;;;12.80;4.00;;;11.30;1.00;;;;;;6073910;23;20424;-79
2022/10/02 00:08:53;;;;;;;12.67;3.70;;;11.30;1.00;;;;;;6102714;23;20440;-80
2022/10/02 00:11:24;;;;;;;13.50;3.83;;;11.40;1.00;;;;;;6102398;23;21212;-80
2022/10/02 00:13:56;;;;;;;15.30;4.07;;;11.40;1.00;;;;;;6077946;23;20428;-79
2022/10/02 00:16:29;;;;;;;14.97;3.93;;;11.40;1.00;;;;;;6101465;23;20428;-79
2022/10/02 00:18:57;;;;;;;19.80;3.90;;;11.50;1.00;;;;;;6102600;23;20407;-79
2022/10/02 00:21:46;;;;;;;12.30;3.83;;;11.50;1.00;;;;;;6099435;23;20415;-79
2022/10/02 00:24:17;;;;;;;10.53;3.63;;;11.60;1.00;;;;;;6037849;23;20417;-79
2022/10/02 00:26:52;;;;;;;13.37;4.50;;;11.60;1.00;;;;;;6104252;23;20420;-81
2022/10/02 00:29:38;;;;;;;13.57;3.83;;;11.60;1.00;;;;;;6109694;23;20428;-79
2022/10/02 00:32:22;;;;;;;13.90;3.90;;;11.60;1.00;;;;;;6110357;23;20427;-80
2022/10/02 00:35:20;;;;;;;11.37;3.40;;;11.60;1.00;;;;;;6111305;23;20400;-80
2022/10/02 00:37:58;;;;;;;11.10;3.50;;;11.50;1.00;;;;;;6110978;23;20421;-80
2022/10/02 00:40:42;;;;;;;13.23;4.07;;;11.50;1.00;;;;;;6101850;23;20584;-80
2022/10/02 00:43:21;;;;;;;11.70;3.30;;;11.50;1.00;;;;;;6104200;23;20420;-79
2022/10/02 00:46:31;;;;;;;14.40;3.70;;;11.50;1.00;;;;;;6101680;23;20436;-79
2022/10/02 00:49:24;;;;;;;16.00;5.57;;;11.50;1.00;;;;;;6102397;23;21184;-80
2022/10/02 00:52:05;;;;;;;12.23;3.50;;;11.50;1.00;;;;;;6103853;23;20424;-80
2022/10/02 00:54:56;;;;;;;12.90;4.10;;;11.50;1.00;;;;;;6104229;23;20428;-80
2022/10/02 00:57:33;;;;;;;13.80;3.90;;;11.50;1.00;;;;;;6102953;23;20432;-79
2022/10/02 01:00:14;;;;;;;14.27;3.73;;;11.50;1.00;;;;;;6106696;23;20432;-80
2022/10/02 01:03:08;;;;;;;15.40;3.53;;;11.50;1.00;;;;;;6105643;23;20428;-80
2022/10/02 01:05:35;;;;;;;11.77;3.50;;;11.50;1.00;;;;;;6103216;23;20417;-80
2022/10/02 01:08:02;;;;;;;13.57;3.00;;;11.50;1.00;;;;;;6104671;23;20456;-80
2022/10/02 01:10:30;;;;;;;11.83;3.27;;;11.50;1.00;;;;;;6105458;23;20425;-79
2022/10/02 01:12:58;;;;;;;17.33;3.80;;;11.50;1.00;;;;;;6105745;23;20448;-80
2022/10/02 01:15:34;;;;;;;11.77;3.70;;;11.50;1.00;;;;;;6104001;23;20441;-82
2022/10/02 01:18:03;;;;;;;13.43;3.50;;;11.40;1.00;;;;;;6078984;23;20444;-81
2022/10/02 01:20:35;;;;;;;12.67;3.77;;;11.40;1.00;;;;;;6096171;23;20506;-81
2022/10/02 01:23:11;;;;;;;16.10;4.03;;;11.40;1.00;;;;;;6102629;23;20400;-81
2022/10/02 01:25:41;;;;;;;12.43;2.90;;;11.40;1.00;;;;;;6100945;23;20420;-78
2022/10/02 01:28:10;;;;;;;11.10;3.43;;;11.30;1.00;;;;;;6103126;23;20443;-80
2022/10/02 01:30:40;;;;;;;13.03;3.70;;;11.30;1.00;;;;;;6064109;23;20441;-79
2022/10/02 01:33:07;;;;;;;12.30;3.27;;;11.30;1.00;;;;;;6103445;23;20876;-79
2022/10/02 01:35:36;;;;;;;13.23;3.20;;;11.40;1.00;;;;;;6104059;23;20416;-79
2022/10/02 01:38:07;;;;;;;15.97;3.87;;;11.30;1.00;;;;;;6105098;23;20464;-81
2022/10/02 01:40:36;;;;;;;15.80;3.47;;;11.30;1.00;;;;;;6104178;23;20428;-80
2022/10/02 01:43:12;;;;;;;18.03;3.67;;;11.30;1.00;;;;;;6104170;23;20456;-79
2022/10/02 01:45:55;;;;;;;16.57;3.57;;;11.20;1.00;;;;;;6102572;23;21128;-79
2022/10/02 01:48:42;;;;;;;15.40;3.47;;;11.20;1.00;;;;;;6102698;23;20440;-79
2022/10/02 01:51:33;;;;;;;14.83;4.13;;;11.20;1.00;;;;;;6103566;23;20793;-78
2022/10/02 01:54:11;;;;;;;13.40;3.47;;;11.20;1.00;;;;;;6102935;23;20459;-80
2022/10/02 01:56:50;;;;;;;15.60;3.80;;;11.20;1.00;;;;;;6099564;23;20502;-81
2022/10/02 01:59:28;;;;;;;11.87;2.80;;;11.20;1.00;;;;;;6061387;23;20456;-80
2022/10/02 02:02:07;;;;;;;15.93;3.97;;;11.20;1.00;;;;;;6102989;23;20392;-81
2022/10/02 02:04:42;;;;;;;14.50;3.53;;;11.10;1.00;;;;;;6063990;23;20499;-80
2022/10/02 02:07:16;;;;;;;13.23;3.10;;;11.10;1.00;;;;;;6103997;23;20505;-82
2022/10/02 02:09:50;;;;;;;12.70;3.63;;;11.10;1.00;;;;;;6103229;23;20435;-80
2022/10/02 02:12:23;;;;;;;11.47;3.20;;;11.10;1.00;;;;;;6099799;23;20460;-79
2022/10/02 02:15:01;;;;;;;16.07;4.10;;;11.10;1.00;;;;;;6102987;23;20471;-79
2022/10/02 02:17:33;;;;;;;12.03;3.20;;;11.10;1.00;;;;;;6099566;23;20439;-79
2022/10/02 02:20:05;;;;;;;14.00;3.50;;;11.00;1.00;;;;;;6102702;23;21215;-83
2022/10/02 02:22:38;;;;;;;17.23;4.63;;;11.00;1.00;;;;;;6100507;23;20489;-79
2022/10/02 02:25:11;;;;;;;17.03;3.90;;;11.00;1.00;;;;;;6078253;23;20427;-78
2022/10/02 02:27:44;;;;;;;14.87;3.30;;;11.10;1.00;;;;;;6102093;23;20416;-80
2022/10/02 02:30:15;;;;;;;14.83;3.77;;;11.10;1.00;;;;;;6105096;23;20456;-79
2022/10/02 02:32:46;;;;;;;12.20;3.33;;;11.10;1.00;;;;;;6102213;23;20731;-79
2022/10/02 02:35:17;;;;;;;15.60;4.30;;;11.10;1.00;;;;;;6103061;23;21160;-80
2022/10/02 02:37:46;;;;;;;15.70;4.20;;;11.10;1.00;;;;;;6101865;23;20838;-79
2022/10/02 02:40:17;;;;;;;10.27;3.00;;;11.10;1.00;;;;;;6101939;23;20436;-79
2022/10/02 02:42:51;;;;;;;13.63;3.30;;;11.10;1.00;;;;;;6100413;23;20428;-79
2022/10/02 02:45:24;;;;;;;13.80;3.13;;;11.10;1.00;;;;;;6101636;23;20817;-79
2022/10/02 02:47:53;;;;;;;15.87;3.40;;;11.10;1.00;;;;;;6103112;23;20452;-78
2022/10/02 02:50:24;;;;;;;15.10;2.93;;;11.10;1.00;;;;;;6100968;23;20519;-79
2022/10/02 02:52:58;;;;;;;13.77;3.37;;;11.00;1.00;;;;;;6103897;23;20933;-79
2022/10/02 02:55:28;;;;;;;11.40;2.83;;;11.00;1.00;;;;;;6101804;23;20860;-80
2022/10/02 02:58:00;;;;;;;14.87;3.53;;;11.00;1.00;;;;;;6103391;23;20810;-80
2022/10/02 03:00:31;;;;;;;13.83;3.73;;;11.00;1.00;;;;;;6101633;23;20861;-79
2022/10/02 03:02:59;;;;;;;12.87;3.20;;;10.90;1.00;;;;;;6102424;23;20556;-80
2022/10/02 03:05:28;;;;;;;11.83;3.47;;;10.90;1.00;;;;;;6102396;23;20420;-79
2022/10/02 03:07:59;;;;;;;13.33;3.60;;;10.90;1.00;;;;;;6103326;23;20428;-79
2022/10/02 03:10:35;;;;;;;15.50;3.60;;;10.90;1.00;;;;;;6103143;23;21019;-81
2022/10/02 03:13:15;;;;;;;11.63;3.73;;;10.80;1.00;;;;;;6078493;23;21184;-79
2022/10/02 03:15:53;;;;;;;16.03;3.90;;;10.80;1.00;;;;;;6088640;23;20495;-79
2022/10/02 03:18:46;;;;;;;17.60;4.33;;;10.80;1.00;;;;;;6103332;23;20741;-80
2022/10/02 03:21:17;;;;;;;13.20;3.20;;;10.80;1.00;;;;;;6097961;23;20400;-79
2022/10/02 03:23:54;;;;;;;15.23;4.07;;;10.70;1.00;;;;;;6103053;23;20527;-79
2022/10/02 03:26:28;;;;;;;15.43;3.40;;;10.70;1.00;;;;;;6102094;23;20600;-79
2022/10/02 03:28:59;;;;;;;13.33;4.07;;;10.70;1.00;;;;;;6103178;23;20429;-80
2022/10/02 03:31:32;;;;;;;13.83;3.17;;;10.70;1.00;;;;;;6102658;23;20542;-79
2022/10/02 03:34:01;;;;;;;12.93;3.67;;;10.60;1.00;;;;;;6103929;23;20409;-78
2022/10/02 03:36:28;;;;;;;14.80;3.63;;;10.70;1.00;;;;;;6102362;23;20436;-79
2022/10/02 03:38:59;;;;;;;17.83;3.60;;;10.60;1.00;;;;;;6103957;23;20442;-79
2022/10/02 03:41:26;;;;;;;14.50;4.03;;;10.60;1.00;;;;;;6103423;23;20472;-79
2022/10/02 03:43:53;;;;;;;16.90;3.67;;;10.60;1.00;;;;;;6102800;23;20444;-80
2022/10/02 03:46:20;;;;;;;14.87;4.10;;;10.60;1.00;;;;;;6101750;23;21301;-80
2022/10/02 03:48:48;;;;;;;12.30;3.80;;;10.60;1.00;;;;;;6102956;23;21135;-79
2022/10/02 03:51:15;;;;;;;12.80;3.23;;;10.60;1.00;;;;;;6103925;23;20445;-79
2022/10/02 03:53:42;;;;;;;14.27;3.13;;;10.60;1.00;;;;;;6100760;23;20420;-79
2022/10/02 03:56:17;;;;;;;14.47;3.73;;;10.60;1.00;;;;;;6103140;23;20424;-80
2022/10/02 03:58:51;;;;;;;15.47;4.50;;;10.60;1.00;;;;;;6101017;23;20955;-81
2022/10/02 04:01:22;;;;;;;13.60;3.50;;;10.70;1.00;;;;;;6101185;23;20447;-79
2022/10/02 04:03:55;;;;;;;12.93;4.20;;;10.60;1.00;;;;;;6101840;23;20539;-79
2022/10/02 04:06:28;;;;;;;13.03;3.10;;;10.60;1.00;;;;;;6101407;23;20515;-79
2022/10/02 04:09:01;;;;;;;11.50;3.60;;;10.60;1.00;;;;;;6103075;23;20428;-80
2022/10/02 04:11:35;;;;;;;16.53;4.30;;;10.60;1.00;;;;;;6098639;23;20472;-79
2022/10/02 04:14:09;;;;;;;14.30;3.40;;;10.60;1.00;;;;;;6100854;23;20443;-79
2022/10/02 04:16:42;;;;;;;14.03;3.60;;;10.60;1.00;;;;;;6083611;23;20461;-80
2022/10/02 04:19:17;;;;;;;11.90;3.13;;;10.60;1.00;;;;;;6084269;23;20440;-79
2022/10/02 04:21:51;;;;;;;13.73;3.87;;;10.60;1.00;;;;;;6102471;23;20432;-79
2022/10/02 04:24:26;;;;;;;13.03;3.37;;;10.60;1.00;;;;;;6101523;23;20401;-79
2022/10/02 04:27:02;;;;;;;16.67;4.10;;;10.60;1.00;;;;;;6077457;23;20444;-79
2022/10/02 04:29:37;;;;;;;15.93;3.30;;;10.60;1.00;;;;;;6099491;23;20427;-80
2022/10/02 04:32:15;;;;;;;13.17;3.13;;;10.60;1.00;;;;;;6103673;23;20408;-80
2022/10/02 04:34:43;;;;;;;13.40;3.40;;;10.60;1.00;;;;;;6101234;23;20412;-79
2022/10/02 04:37:31;;;;;;;15.57;3.43;;;10.60;1.00;;;;;;6103388;23;20502;-78
2022/10/02 04:40:15;;;;;;;14.17;4.03;;;10.60;1.00;;;;;;6079148;23;20476;-81
2022/10/02 04:42:54;;;;;;;13.63;3.00;;;10.70;1.00;;;;;;6089146;23;20512;-80
2022/10/02 04:45:35;;;;;;;11.90;3.37;;;10.70;1.00;;;;;;6103177;23;20417;-78
2022/10/02 04:48:32;;;;;;;13.60;3.43;;;10.80;1.00;;;;;;6106637;23;20397;-79
2022/10/02 04:51:12;;;;;;;11.80;2.80;;;10.80;1.00;;;;;;6101176;23;20381;-80
2022/10/02 04:54:01;;;;;;;13.70;3.30;;;10.90;1.00;;;;;;6104168;23;20442;-81
2022/10/02 04:56:47;;;;;;;17.10;3.33;;;10.90;1.00;;;;;;6101706;23;20523;-78
2022/10/02 04:59:30;;;;;;;13.77;3.33;;;10.90;1.00;;;;;;6105885;23;20858;-80
2022/10/02 05:02:10;;;;;;;14.40;4.03;;;11.00;1.00;;;;;;6103888;23;21181;-79
2022/10/02 05:04:58;;;;;;;13.17;3.60;;;11.10;1.00;;;;;;6102334;23;20424;-79
2022/10/02 05:07:41;;;;;;;13.83;3.30;;;11.20;1.00;;;;;;6103950;23;20870;-81
2022/10/02 05:10:28;;;;;;;13.07;3.40;;;11.20;1.00;;;;;;6103937;23;20928;-80
2022/10/02 05:13:11;;;;;;;14.53;3.37;;;11.30;1.00;;;;;;6103403;23;20440;-80
2022/10/02 05:15:55;;;;;;;12.97;3.00;;;11.30;1.00;;;;;;6100603;23;20415;-80
2022/10/02 05:18:46;;;;;;;12.20;3.50;;;11.20;1.00;;;;;;6102594;23;20425;-81
2022/10/02 05:21:38;;;;;;;13.83;3.73;;;11.10;1.00;;;;;;6110137;23;20437;-76
2022/10/02 05:24:23;;;;;;;15.40;3.73;;;11.00;1.00;;;;;;6112074;23;20401;-75
2022/10/02 05:27:19;;;;;;;11.10;3.37;;;11.00;1.00;;;;;;6117448;23;20396;-80
2022/10/02 05:30:09;;;;;;;14.67;3.10;;;11.00;1.00;;;;;;6119000;23;20522;-80
2022/10/02 05:33:11;;;;;;;12.27;3.10;;;11.00;1.00;;;;;;6078775;23;20410;-81
2022/10/02 05:35:52;;;;;;;12.97;3.90;;;11.00;1.00;;;;;;6102303;23;21062;-80
2022/10/02 05:38:38;;;;;;;15.43;4.20;;;10.90;1.00;;;;;;6108714;23;20476;-80
2022/10/02 05:41:17;;;;;;;11.87;3.60;;;10.90;1.00;;;;;;6111180;23;21142;-79
2022/10/02 05:43:48;;;;;;;16.53;3.33;;;10.90;1.00;;;;;;6108673;23;20432;-80
2022/10/02 05:46:22;;;;;;;10.57;2.77;;;10.90;1.00;;;;;;6109564;23;20428;-80
2022/10/02 05:48:58;;;;;;;12.63;3.40;;;10.90;1.00;;;;;;6109654;23;20404;-80
2022/10/02 05:51:35;;;;;;;11.00;2.90;;;10.90;1.00;;;;;;6109480;23;20906;-79
2022/10/02 05:54:06;;;;;;;12.53;3.03;;;10.90;1.00;;;;;;6108110;23;20424;-80
2022/10/02 05:56:43;;;;;;;11.40;2.80;;;11.00;1.00;;;;;;6106950;23;20408;-80
2022/10/02 05:59:17;;;;;;;16.13;3.47;;;11.00;1.00;;;;;;6112665;23;20419;-79
2022/10/02 06:01:47;;;;;;;12.60;3.40;;;11.10;1.00;;;;;;6107455;23;20396;-80
2022/10/02 06:04:21;;;;;;;13.00;3.60;;;11.10;1.00;;;;;;6108983;23;20528;-80
2022/10/02 06:06:52;;;;;;;12.47;3.10;;;11.30;1.00;;;;;;6090349;23;20859;-82
2022/10/02 06:09:22;;;;;;;15.17;3.57;;;11.40;1.00;;;;;;6091886;23;20416;-80
2022/10/02 06:11:57;;;;;;;12.80;3.43;;;11.60;1.00;;;;;;6114386;23;20416;-78
2022/10/02 06:14:32;;;;;;;11.90;2.67;;;11.80;1.00;;;;;;6109904;23;20430;-80
2022/10/02 06:17:03;;;;;;;11.10;3.03;;;11.90;1.00;;;;;;6110402;23;20604;-79
2022/10/02 06:19:36;;;;;;;11.87;3.20;;;12.00;1.00;;;;;;6112133;23;20464;-79
2022/10/02 06:22:11;;;;;;;12.53;3.10;;;11.90;1.00;;;;;;6111475;23;20421;-79
2022/10/02 06:24:44;;;;;;;12.13;3.00;;;11.80;1.00;;;;;;6108747;23;20455;-81
2022/10/02 06:27:20;;;;;;;12.30;4.00;;;11.80;1.00;;;;;;6110142;23;20428;-80
2022/10/02 06:29:54;;;;;;;15.97;3.87;;;11.70;1.00;;;;;;6110194;23;20444;-80
2022/10/02 06:32:33;;;;;;;10.67;3.37;;;11.70;1.00;;;;;;6070354;23;20421;-79
2022/10/02 06:35:01;;;;;;;14.97;4.10;;;11.70;1.00;;;;;;6112721;23;20475;-79
2022/10/02 06:37:45;;;;;;;21.73;4.83;;;11.70;1.00;;;;;;6111225;23;20408;-79
2022/10/02 06:40:34;;;;;;;12.80;3.63;;;11.80;1.00;;;;;;6109127;23;20419;-79
2022/10/02 06:43:12;;;;;;;13.20;4.20;;;11.90;1.00;;;;;;6111371;23;20397;-79
2022/10/02 06:45:57;;;;;;;12.20;3.93;;;11.90;1.00;;;;;;6110256;23;20424;-79
2022/10/02 06:48:31;;;;;;;12.90;4.10;;;12.00;1.00;;;;;;6108120;23;20440;-79
2022/10/02 06:51:07;;;;;;;10.27;3.67;;;12.00;1.00;;;;;;6110781;23;20454;-81
2022/10/02 06:53:53;;;;;;;13.80;4.13;;;12.00;1.00;;;;;;6107915;23;20424;-80
2022/10/02 06:56:42;;;;;;;17.03;4.67;;;11.90;1.00;;;;;;6109263;23;20440;-80
2022/10/02 06:59:23;;;;;;;14.97;4.50;;;11.90;1.00;;;;;;6109414;23;20435;-79
2022/10/02 07:01:57;;;;;;;12.60;4.33;;;11.90;1.00;;;;;;6102681;23;20419;-79
2022/10/02 07:04:41;;;;;;;16.63;4.73;;;11.90;1.00;;;;;;6105588;23;20635;-79
2022/10/02 07:07:26;;;;;;;12.93;4.07;;;11.90;1.00;;;;;;6105160;23;20408;-80
2022/10/02 07:10:08;;;;;;;14.30;4.57;;;11.90;1.00;;;;;;6108986;23;20412;-79
2022/10/02 07:12:53;;;;;;;12.07;4.80;;;11.90;1.00;;;;;;6108826;23;20425;-78
2022/10/02 07:15:50;;;;;;;14.70;4.50;;;11.90;1.00;;;;;;6103777;23;20392;-79
2022/10/02 07:18:23;;;;;;;12.67;4.97;;;11.90;1.00;;;;;;6102544;23;21223;-78
2022/10/02 07:20:59;;;;;;;12.47;4.90;;;11.90;1.00;;;;;;6102483;23;20420;-78
2022/10/02 07:23:41;;;;;;;11.30;4.53;;;12.00;1.00;;;;;;6101863;23;21189;-78
2022/10/02 07:26:35;;;;;;;12.93;5.07;;;12.00;1.00;;;;;;6102892;23;20443;-77
2022/10/02 07:29:17;;;;;;;13.97;5.40;;;12.10;1.00;;;;;;6102107;23;20873;-78
2022/10/02 07:31:57;;;;;;;11.70;4.50;;;12.10;1.00;;;;;;6100534;23;20434;-78
2022/10/02 07:34:37;;;;;;;13.93;5.93;;;12.10;1.00;;;;;;6100518;23;20431;-77
2022/10/02 07:37:17;;;;;;;17.33;5.67;;;12.20;1.00;;;;;;6104064;23;20432;-77
2022/10/02 07:39:58;;;;;;;14.67;6.20;;;12.20;1.00;;;;;;6103286;23;20448;-78
2022/10/02 07:42:53;;;;;;;13.70;5.13;;;12.30;1.00;;;;;;6101289;23;20436;-78
2022/10/02 07:45:37;;;;;;;14.07;5.90;;;12.40;1.00;;;;;;6034562;23;20527;-77
2022/10/02 07:48:35;;;;;;;15.83;5.83;;;12.50;1.00;;;;;;6092145;23;20835;-77
2022/10/02 07:54:15;;;;;;;14.27;5.40;;;12.80;1.00;;;;;;6101241;23;20425;-77
2022/10/02 07:56:50;;;;;;;14.50;5.90;;;13.10;1.00;;;;;;6102338;23;20428;-78
2022/10/02 07:59:18;;;;;;;14.80;6.03;;;13.20;1.00;;;;;;6104796;23;20510;-84
2022/10/02 08:01:49;;;;;;;12.90;5.67;;;13.30;1.00;;;;;;6106239;23;20512;-80
2022/10/02 08:04:21;;;;;;;16.90;5.83;;;13.50;1.00;;;;;;6104573;23;21167;-78
2022/10/02 08:06:51;;;;;;;19.30;7.07;;;13.60;1.00;;;;;;6108317;23;20505;-78
2022/10/02 08:09:23;;;;;;;15.70;6.13;;;13.80;1.00;;;;;;6106396;23;20456;-81
2022/10/02 08:11:56;;;;;;;15.30;5.83;;;13.90;1.00;;;;;;6107382;23;20984;-80
2022/10/02 08:14:31;;;;;;;15.20;5.43;;;14.10;1.00;;;;;;6105724;23;20805;-80
2022/10/02 08:17:11;;;;;;;13.50;5.40;;;14.20;1.00;;;;;;6091528;23;20479;-80
2022/10/02 08:19:50;;;;;;;16.50;5.97;;;14.40;1.00;;;;;;6066575;23;20421;-80
2022/10/02 08:22:24;;;;;;;12.90;6.83;;;14.50;1.00;;;;;;6090155;23;20614;-81
2022/10/02 08:25:08;;;;;;;16.60;7.00;;;14.80;1.00;;;;;;6090461;23;20394;-78
2022/10/02 08:27:56;;;;;;;17.37;5.73;;;14.90;1.00;;;;;;6083747;23;20438;-79
2022/10/02 08:30:24;;;;;;;11.87;5.53;;;15.10;1.00;;;;;;6070445;23;20377;-80
2022/10/02 08:32:55;;;;;;;12.20;5.00;;;15.30;1.00;;;;;;6066105;23;20450;-81
2022/10/02 08:35:45;;;;;;;12.70;5.73;;;15.50;1.00;;;;;;6070549;23;20382;-81
2022/10/02 08:38:36;;;;;;;12.70;5.77;;;15.70;1.00;;;;;;6116640;23;20392;-79
2022/10/02 08:41:43;;;;;;;13.60;5.40;;;15.90;1.00;;;;;;6101003;23;20460;-78
2022/10/02 08:44:55;;;;;;;16.67;6.37;;;16.10;1.00;;;;;;6113098;23;20412;-78
2022/10/02 08:48:06;;;;;;;14.20;5.70;;;16.40;1.00;;;;;;6109859;23;20463;-77
2022/10/02 08:51:06;;;;;;;12.20;5.43;;;16.30;1.00;;;;;;6076669;23;20432;-80
2022/10/02 08:54:07;;;;;;;15.97;5.00;;;16.30;1.00;;;;;;6113595;23;20405;-80
2022/10/02 08:56:51;;;;;;;13.47;5.63;;;16.70;1.00;;;;;;6114857;23;20409;-79
2022/10/02 09:00:04;;;;;;;15.07;4.93;;;16.90;1.00;;;;;;6109816;23;20393;-78
2022/10/02 09:03:06;;;;;;;15.00;5.60;;;17.20;1.00;;;;;;6074036;23;20449;-81
2022/10/02 09:06:15;;;;;;;10.03;4.70;;;17.40;1.00;;;;;;6113982;23;20399;-79
2022/10/02 09:09:22;;;;;;;12.13;4.67;;;17.20;1.00;;;;;;6093863;23;20404;-77
2022/10/02 09:12:15;;;;;;;10.67;5.30;;;16.90;1.00;;;;;;6103597;23;20890;-78
2022/10/02 09:14:53;;;;;;;11.40;5.03;;;16.80;1.00;;;;;;6113318;23;20511;-77
2022/10/02 09:17:42;;;;;;;11.63;5.13;;;16.90;1.00;;;;;;6085554;23;20393;-78
2022/10/02 09:20:43;;;;;;;11.90;4.50;;;17.30;1.00;;;;;;6107050;23;20424;-78
2022/10/02 09:23:43;;;;;;;10.33;5.10;;;17.50;1.00;;;;;;6093928;23;20420;-81
2022/10/02 09:27:03;;;;;;;13.27;5.23;;;17.60;1.00;;;;;;6116720;23;20390;-80
2022/10/02 09:30:12;;;;;;;12.50;5.77;;;17.60;1.00;;;;;;6112582;23;20419;-80
2022/10/02 09:33:26;;;;;;;15.10;6.37;;;17.30;1.00;;;;;;6096772;23;20389;-80
2022/10/02 09:36:44;;;;;;;12.10;5.60;;;17.00;1.00;;;;;;6102148;23;20416;-80
2022/10/02 09:39:54;;;;;;;13.00;5.67;;;17.00;1.00;;;;;;6115000;23;20429;-81
2022/10/02 09:42:52;;;;;;;11.43;5.10;;;17.40;1.00;;;;;;6004492;23;20411;-82
2022/10/02 09:46:02;;;;;;;15.90;6.13;;;17.40;1.00;;;;;;6116003;23;20454;-81
2022/10/02 09:49:16;;;;;;;11.83;5.80;;;17.20;1.00;;;;;;6047199;23;20400;-81
2022/10/02 09:52:33;;;;;;;14.17;5.90;;;17.30;1.00;;;;;;6113813;23;20572;-79
2022/10/02 09:55:29;;;;;;;14.37;4.80;;;17.40;1.00;;;;;;6108538;23;20434;-81
2022/10/02 09:58:35;;;;;;;12.47;5.60;;;18.40;1.00;;;;;;6108501;23;20483;-81
2022/10/02 10:01:36;;;;;;;10.43;5.20;;;18.80;1.00;;;;;;6116202;23;20413;-80
2022/10/02 10:04:53;;;;;;;15.20;5.07;;;19.40;1.00;;;;;;6089659;23;20530;-81
2022/10/02 10:08:20;;;;;;;10.93;5.57;;;19.70;1.00;;;;;;6028931;23;20377;-81
2022/10/02 10:11:22;;;;;;;11.53;4.60;;;20.40;1.00;;;;;;6015829;23;20425;-82
2022/10/02 10:14:47;;;;;;;12.10;4.80;;;21.30;1.00;;;;;;6109114;23;20417;-82
2022/10/02 10:17:54;;;;;;;8.50;4.27;;;20.60;1.00;;;;;;6071152;23;20448;-79
2022/10/02 10:20:53;;;;;;;11.80;4.17;;;19.40;1.00;;;;;;6113260;23;20791;-81
2022/10/02 10:23:44;;;;;;;11.47;3.67;;;18.50;1.00;;;;;;6114591;23;20404;-81
2022/10/02 10:26:36;;;;;;;10.47;4.27;;;17.90;1.00;;;;;;6085802;23;20409;-82
2022/10/02 10:29:53;;;;;;;14.83;4.70;;;17.30;1.00;;;;;;6088986;23;20424;-80
2022/10/02 10:33:07;;;;;;;9.07;4.23;;;16.70;1.00;;;;;;6082779;23;20421;-76
2022/10/02 10:39:43;;;;;;;11.67;3.33;;;16.30;1.00;;;;;;6112194;23;20424;-76
2022/10/02 10:43:03;;;;;;;10.27;3.90;;;16.00;1.00;;;;;;6114694;23;20400;-76
2022/10/02 10:45:52;;;;;;;9.60;3.37;;;16.30;1.00;;;;;;6113016;23;20396;-77
2022/10/02 10:48:44;;;;;;;8.87;3.60;;;18.00;1.00;;;;;;6114713;23;20385;-77
2022/10/02 10:51:34;;;;;;;9.83;2.87;;;18.80;1.00;;;;;;6114231;23;20457;-76
2022/10/02 10:54:43;;;;;;;8.27;3.13;;;18.50;1.00;;;;;;6114462;23;20400;-77
2022/10/02 10:57:24;;;;;;;8.77;2.80;;;18.00;1.00;;;;;;6076670;23;20489;-77
2022/10/02 11:00:15;;;;;;;7.40;2.87;;;17.20;1.00;;;;;;6113997;23;20412;-77
2022/10/02 11:02:58;;;;;;;8.40;2.60;;;16.70;1.00;;;;;;6080003;23;20451;-80
2022/10/02 11:06:24;;;;;;;10.27;3.20;;;16.40;1.00;;;;;;6111824;23;20425;-76
2022/10/02 11:09:26;;;;;;;11.90;4.63;;;16.10;1.00;;;;;;6110800;23;20400;-76
2022/10/02 11:12:21;;;;;;;10.53;4.53;;;15.90;1.00;;;;;;6111889;23;20496;-77
2022/10/02 11:15:12;;;;;;;9.40;4.00;;;15.90;1.00;;;;;;6112782;23;20395;-76
2022/10/02 11:18:14;;;;;;;12.10;4.30;;;16.40;1.00;;;;;;6113183;23;20604;-76
2022/10/02 11:21:06;;;;;;;10.20;3.93;;;17.30;1.00;;;;;;6111705;23;20403;-77
2022/10/02 11:23:55;;;;;;;11.00;5.23;;;18.10;1.00;;;;;;6112791;23;20427;-79
2022/10/02 11:26:52;;;;;;;9.10;4.30;;;18.50;1.00;;;;;;6113354;23;20424;-76
2022/10/02 11:30:01;;;;;;;10.50;4.33;;;18.40;1.00;;;;;;6112935;23;20407;-78
2022/10/02 11:33:07;;;;;;;9.60;5.20;;;17.70;1.00;;;;;;6112894;23;20455;-77
2022/10/02 11:35:54;;;;;;;13.93;5.53;;;16.80;1.00;;;;;;6113344;23;20443;-80
2022/10/02 11:38:50;;;;;;;10.13;4.27;;;16.00;1.00;;;;;;6113319;23;20464;-77
2022/10/02 11:41:43;;;;;;;10.17;4.47;;;15.60;1.00;;;;;;6111976;23;20405;-78
2022/10/02 11:47:53;;;;;;;13.80;4.43;;;14.90;1.00;;;;;;6115048;23;20531;-82
2022/10/02 11:50:45;;;;;;;9.33;4.20;;;16.30;1.00;;;;;;6088898;23;20404;-82
2022/10/02 11:54:02;;;;;;;10.90;4.00;;;20.00;1.00;;;;;;6116386;23;20595;-80
2022/10/02 11:57:01;;;;;;;7.43;3.30;;;23.80;1.00;;;;;;6115184;23;20399;-81
2022/10/02 11:59:51;;;;;;;6.17;2.50;;;27.20;1.00;;;;;;6115392;23;20438;-83
2022/10/02 12:02:25;;;;;;;7.10;2.70;;;29.50;1.00;;;;;;6076423;23;20401;-82
2022/10/02 12:05:11;;;;;;;6.10;2.63;;;30.50;1.00;;;;;;6117291;23;20439;-83
2022/10/02 12:08:14;;;;;;;7.90;3.13;;;31.10;1.00;;;;;;6117021;23;20472;-81
2022/10/02 12:10:59;;;;;;;5.33;2.30;;;29.10;1.00;;;;;;6098546;23;20433;-81
2022/10/02 12:13:47;;;;;;;8.63;3.17;;;28.50;1.00;;;;;;6099806;23;20436;-82
2022/10/02 12:16:25;;;;;;;7.80;3.10;;;29.10;1.00;;;;;;6116358;23;20599;-81
2022/10/02 12:19:12;;;;;;;7.00;3.80;;;30.10;1.00;;;;;;6115793;23;20416;-83
2022/10/02 12:28:06;;;;;;;7.10;2.70;;;31.80;1.00;;;;;;6114589;23;20401;-81
2022/10/02 12:30:43;;;;;;;9.20;3.17;;;31.70;1.00;;;;;;6116477;23;20393;-82
2022/10/02 12:33:33;;;;;;;8.50;3.37;;;31.00;1.00;;;;;;6115752;23;20399;-82
2022/10/02 12:36:35;;;;;;;6.33;2.67;;;29.10;1.00;;;;;;6093509;23;20446;-82
2022/10/02 12:39:43;;;;;;;6.77;2.83;;;26.50;1.00;;;;;;6108069;23;20436;-82
2022/10/02 12:42:40;;;;;;;8.37;3.00;;;24.20;1.00;;;;;;6115809;23;20396;-81
2022/10/02 12:45:45;;;;;;;7.90;3.10;;;22.10;1.00;;;;;;6110523;23;20425;-75
2022/10/02 12:48:34;;;;;;;7.60;3.00;;;20.40;1.00;;;;;;6115256;23;20400;-77
2022/10/02 12:51:23;;;;;;;7.93;3.70;;;19.40;1.00;;;;;;6114788;23;20392;-79
2022/10/02 12:54:22;;;;;;;5.90;2.80;;;18.80;1.00;;;;;;6112422;23;20488;-79
2022/10/02 13:00:17;;;;;;;7.70;2.60;;;17.90;1.00;;;;;;6102589;23;20416;-78
2022/10/02 13:03:21;;;;;;;8.80;2.93;;;18.10;1.00;;;;;;6111814;23;20499;-76
2022/10/02 13:06:16;;;;;;;7.47;2.80;;;18.10;1.00;;;;;;6111090;23;20416;-76
2022/10/02 13:09:15;;;;;;;9.17;3.30;;;18.20;1.00;;;;;;6110954;23;20500;-81
2022/10/02 13:12:09;;;;;;;8.20;3.00;;;18.20;1.00;;;;;;6081428;23;20405;-78
2022/10/02 13:15:12;;;;;;;8.50;3.37;;;18.00;1.00;;;;;;6114147;23;20428;-76
2022/10/02 13:18:04;;;;;;;6.67;2.40;;;17.70;1.00;;;;;;6114577;23;20460;-81
2022/10/02 13:20:52;;;;;;;8.10;2.67;;;17.60;1.00;;;;;;6114931;23;20392;-81
2022/10/02 13:23:33;;;;;;;7.73;2.80;;;17.60;1.00;;;;;;6114168;23;20405;-81
2022/10/02 13:26:14;;;;;;;5.77;2.17;;;17.70;1.00;;;;;;6115462;23;20495;-81
2022/10/02 13:29:28;;;;;;;7.10;2.57;;;17.70;1.00;;;;;;6114700;23;20460;-79
2022/10/02 13:32:15;;;;;;;7.60;2.70;;;17.80;1.00;;;;;;6100616;23;20418;-81
2022/10/02 13:35:02;;;;;;;7.53;2.07;;;17.90;1.00;;;;;;6112146;23;20511;-80
2022/10/02 13:37:43;;;;;;;8.37;2.43;;;18.00;1.00;;;;;;6112464;23;20441;-81
2022/10/02 13:40:40;;;;;;;7.03;2.57;;;18.10;1.00;;;;;;6088957;23;20397;-80
2022/10/02 13:43:41;;;;;;;7.40;2.53;;;17.90;1.00;;;;;;6114957;23;20392;-81
2022/10/02 13:46:33;;;;;;;6.93;2.50;;;17.80;1.00;;;;;;6111570;23;20379;-82
2022/10/02 13:49:17;;;;;;;7.13;2.70;;;17.80;1.00;;;;;;6114293;23;20405;-80
2022/10/02 13:54:57;;;;;;;8.40;2.80;;;17.90;1.00;;;;;;6111099;23;20429;-82
2022/10/02 13:58:07;;;;;;;9.37;2.97;;;18.00;1.00;;;;;;6113312;23;20934;-81
2022/10/02 14:01:04;;;;;;;6.93;2.63;;;18.20;1.00;;;;;;6047626;23;20432;-81
2022/10/02 14:03:46;;;;;;;7.07;2.60;;;18.20;1.00;;;;;;6114371;23;20441;-80
2022/10/02 14:06:25;;;;;;;8.87;2.70;;;17.90;1.00;;;;;;6113361;23;20405;-81
2022/10/02 14:09:21;;;;;;;9.80;2.50;;;17.80;1.00;;;;;;6113373;23;20772;-81
2022/10/02 14:12:33;;;;;;;7.43;2.87;;;17.80;1.00;;;;;;6113037;23;20445;-81
2022/10/02 14:15:21;;;;;;;8.53;2.43;;;17.60;1.00;;;;;;6113915;23;20408;-80
2022/10/02 14:18:25;;;;;;;8.90;2.80;;;17.50;1.00;;;;;;6113269;23;20428;-81
2022/10/02 14:21:02;;;;;;;10.00;2.40;;;17.40;1.00;;;;;;6091966;23;20464;-81
2022/10/02 14:24:03;;;;;;;9.10;2.90;;;17.40;1.00;;;;;;6112474;23;21142;-81
2022/10/02 14:26:51;;;;;;;7.60;2.67;;;17.30;1.00;;;;;;6073962;23;20479;-80
2022/10/02 14:29:37;;;;;;;6.57;1.93;;;17.30;1.00;;;;;;6113726;23;20456;-79
2022/10/02 14:32:19;;;;;;;7.20;2.07;;;17.30;1.00;;;;;;6113560;23;20421;-76
2022/10/02 14:35:34;;;;;;;9.27;2.57;;;17.30;1.00;;;;;;6109646;23;20436;-78
2022/10/02 14:38:25;;;;;;;7.07;2.07;;;17.20;1.00;;;;;;6086118;23;20452;-76
2022/10/02 14:40:54;;;;;;;6.20;1.50;;;17.10;1.00;;;;;;6112392;23;20401;-80